Time;durP1;ratioP1;P1;durP2;ratioP2;P2;SDS_P1;SDS_P2;PMS_P1;PMS_P2;Temp;Humidity;BMP_temperature;BMP_pressure;BME280_temperature;BME280_humidity;BME280_pressure;Samples;Min_cycle;Max_cycle;Signal;HPM_P1;HPM_P2
2021/04/20 00:01:28;;;;;;;16.53;14.87;;;7.10;99.90;;;;;;5111145;28;20208;-70
2021/04/20 00:03:54;;;;;;;15.53;14.03;;;7.10;99.90;;;;;;5092780;28;20176;-70
2021/04/20 00:06:20;;;;;;;15.83;14.23;;;7.00;99.90;;;;;;5093553;28;20161;-70
2021/04/20 00:08:46;;;;;;;16.93;15.23;;;7.00;99.90;;;;;;5092911;28;20185;-70
2021/04/20 00:11:12;;;;;;;14.33;12.87;;;7.00;99.90;;;;;;5092930;28;20477;-70
2021/04/20 00:13:37;;;;;;;16.30;14.47;;;7.00;99.90;;;;;;5092813;28;20178;-70
2021/04/20 00:16:03;;;;;;;15.37;13.70;;;7.00;99.90;;;;;;5093039;28;20152;-70
2021/04/20 00:18:29;;;;;;;14.63;13.20;;;7.00;99.90;;;;;;5093244;28;20168;-70
2021/04/20 00:20:54;;;;;;;16.27;14.40;;;6.90;99.90;;;;;;5092705;28;20810;-70
2021/04/20 00:23:20;;;;;;;13.87;12.57;;;6.90;99.90;;;;;;5093434;28;20529;-70
2021/04/20 00:25:45;;;;;;;14.80;13.30;;;6.90;99.90;;;;;;5092713;28;20166;-70
2021/04/20 00:28:11;;;;;;;13.93;12.33;;;6.90;99.90;;;;;;5092813;28;20188;-70
2021/04/20 00:30:37;;;;;;;15.23;13.43;;;6.80;99.90;;;;;;5093036;28;20169;-70
2021/04/20 00:33:03;;;;;;;13.60;12.20;;;6.80;99.90;;;;;;5093012;28;20149;-70
2021/04/20 00:35:28;;;;;;;13.27;11.97;;;6.80;99.90;;;;;;5092631;28;20178;-70
2021/04/20 00:37:54;;;;;;;14.73;12.53;;;6.80;99.90;;;;;;5092611;28;20394;-70
2021/04/20 00:40:19;;;;;;;16.07;12.67;;;6.70;99.90;;;;;;5093123;28;20621;-70
2021/04/20 00:45:24;;;;;;;17.03;14.40;;;6.70;99.90;;;;;;5111010;27;20576;-71
2021/04/20 00:47:50;;;;;;;14.70;13.20;;;6.70;99.90;;;;;;5111192;28;20400;-71
2021/04/20 00:50:17;;;;;;;20.03;12.60;;;6.70;99.90;;;;;;5110775;28;20466;-70
2021/04/20 00:52:43;;;;;;;17.13;14.63;;;6.70;99.90;;;;;;5110636;28;20161;-70
2021/04/20 00:55:10;;;;;;;14.17;12.83;;;6.60;99.90;;;;;;5110649;28;20392;-70
2021/04/20 00:57:35;;;;;;;14.47;12.97;;;6.60;99.90;;;;;;5108070;28;20185;-71
2021/04/20 01:00:03;;;;;;;13.93;12.43;;;6.60;99.90;;;;;;5090291;28;20909;-71
2021/04/20 01:02:29;;;;;;;17.47;13.60;;;6.60;99.90;;;;;;5090345;28;20176;-71
2021/04/20 01:04:54;;;;;;;15.20;13.70;;;6.60;99.90;;;;;;5090221;28;20494;-71
2021/04/20 01:07:20;;;;;;;13.33;12.13;;;6.50;99.90;;;;;;5090142;28;20153;-70
2021/04/20 01:09:47;;;;;;;14.67;12.83;;;6.50;99.90;;;;;;5090160;28;20212;-70
2021/04/20 01:12:13;;;;;;;13.27;11.93;;;6.50;99.90;;;;;;5090079;28;20395;-70
2021/04/20 01:14:39;;;;;;;15.43;13.13;;;6.50;99.90;;;;;;5093221;28;20414;-71
2021/04/20 01:17:05;;;;;;;15.67;13.00;;;6.40;99.90;;;;;;5110542;28;20770;-70
2021/04/20 01:19:32;;;;;;;15.07;13.20;;;6.40;99.90;;;;;;5110282;28;20209;-71
2021/04/20 01:21:59;;;;;;;14.30;12.90;;;6.40;99.90;;;;;;5110267;28;20175;-71
2021/04/20 01:24:26;;;;;;;15.60;13.43;;;6.40;99.90;;;;;;5110227;28;20449;-71
2021/04/20 01:26:52;;;;;;;13.40;12.00;;;6.40;99.90;;;;;;5110146;28;20389;-71
2021/04/20 01:29:21;;;;;;;14.93;12.70;;;6.30;99.90;;;;;;5110263;28;20911;-71
2021/04/20 01:31:46;;;;;;;14.40;13.00;;;6.30;99.90;;;;;;5109757;28;20456;-71
2021/04/20 01:34:13;;;;;;;15.87;13.77;;;6.30;99.90;;;;;;5109948;28;20389;-71
2021/04/20 01:36:39;;;;;;;16.20;14.50;;;6.30;99.90;;;;;;5110178;28;20190;-70
2021/04/20 01:39:07;;;;;;;15.87;14.20;;;6.30;99.90;;;;;;5110104;28;20405;-70
2021/04/20 01:41:34;;;;;;;14.50;12.50;;;6.30;99.90;;;;;;5109668;28;21018;-71
2021/04/20 01:44:00;;;;;;;18.20;15.13;;;6.20;99.90;;;;;;5109803;28;20503;-71
2021/04/20 01:46:26;;;;;;;15.27;13.33;;;6.20;99.90;;;;;;5110032;28;20719;-71
2021/04/20 01:48:52;;;;;;;16.20;12.90;;;6.20;99.90;;;;;;5108951;28;20547;-71
2021/04/20 01:51:19;;;;;;;15.57;12.93;;;6.20;99.90;;;;;;5109716;28;20389;-70
2021/04/20 01:53:46;;;;;;;16.00;14.40;;;6.20;99.90;;;;;;5109536;28;20390;-71
2021/04/20 01:56:12;;;;;;;14.67;13.03;;;6.10;99.90;;;;;;5098858;28;20396;-70
2021/04/20 01:58:39;;;;;;;16.60;13.30;;;6.10;99.90;;;;;;5095975;28;20510;-71
2021/04/20 02:01:08;;;;;;;16.37;13.70;;;6.10;99.90;;;;;;5095999;28;20493;-71
2021/04/20 02:03:34;;;;;;;23.43;13.67;;;6.10;99.90;;;;;;5076441;28;20489;-68
2021/04/20 02:06:00;;;;;;;16.20;14.40;;;6.00;99.90;;;;;;5076089;28;20404;-68
2021/04/20 02:08:26;;;;;;;14.23;12.80;;;6.00;99.90;;;;;;5075681;28;20480;-68
2021/04/20 02:10:52;;;;;;;15.53;13.90;;;6.00;99.90;;;;;;5075512;28;20486;-68
2021/04/20 02:13:20;;;;;;;14.70;13.20;;;6.00;99.90;;;;;;5075722;28;20936;-68
2021/04/20 02:15:46;;;;;;;14.73;13.17;;;6.00;99.90;;;;;;5076064;28;20406;-68
2021/04/20 02:18:12;;;;;;;14.63;13.13;;;5.90;99.90;;;;;;5075349;28;20390;-68
2021/04/20 02:20:40;;;;;;;16.60;13.17;;;5.90;99.90;;;;;;5075336;28;20394;-68
2021/04/20 02:23:06;;;;;;;15.63;12.90;;;5.90;99.90;;;;;;5075953;28;20428;-68
2021/04/20 02:25:33;;;;;;;15.67;14.00;;;5.90;99.90;;;;;;5074962;28;20427;-68
2021/04/20 02:27:59;;;;;;;15.53;13.90;;;5.90;99.90;;;;;;5075300;28;20394;-68
2021/04/20 02:30:25;;;;;;;17.77;15.07;;;5.80;99.90;;;;;;5075761;28;20452;-68
2021/04/20 02:32:51;;;;;;;15.33;13.87;;;5.80;99.90;;;;;;5074962;28;20526;-68
2021/04/20 02:35:18;;;;;;;14.43;12.93;;;5.80;99.90;;;;;;5074864;28;20835;-68
2021/04/20 02:37:45;;;;;;;14.90;13.30;;;5.80;99.90;;;;;;5075188;28;20402;-68
2021/04/20 02:40:22;;;;;;;15.70;13.93;;;5.80;99.90;;;;;;5075381;28;20406;-68
2021/04/20 02:42:49;;;;;;;17.10;14.70;;;5.80;99.90;;;;;;5074958;28;20397;-68
2021/04/20 02:45:15;;;;;;;15.30;13.70;;;5.80;99.90;;;;;;5074997;28;20567;-68
2021/04/20 02:47:42;;;;;;;16.23;13.40;;;5.80;99.90;;;;;;5074735;28;20469;-68
2021/04/20 02:50:09;;;;;;;16.07;14.37;;;5.80;99.90;;;;;;5075161;28;20479;-68
2021/04/20 02:52:36;;;;;;;16.07;14.47;;;5.70;99.90;;;;;;5074727;28;20430;-68
2021/04/20 02:55:06;;;;;;;15.97;13.80;;;5.70;99.90;;;;;;5074623;28;20798;-68
2021/04/20 02:57:35;;;;;;;16.20;14.60;;;5.70;99.90;;;;;;5075105;28;20828;-68
2021/04/20 03:00:01;;;;;;;15.10;13.70;;;5.70;99.90;;;;;;5074536;28;20427;-68
2021/04/20 03:02:27;;;;;;;16.00;14.23;;;5.70;99.90;;;;;;5074580;28;20418;-68
2021/04/20 03:04:52;;;;;;;17.07;13.37;;;5.60;99.90;;;;;;5074432;28;20192;-68
2021/04/20 03:07:18;;;;;;;14.97;12.73;;;5.60;99.90;;;;;;5073128;28;20982;-68
2021/04/20 03:09:46;;;;;;;16.17;14.37;;;5.60;99.90;;;;;;5074284;28;20165;-68
2021/04/20 03:12:13;;;;;;;17.50;14.00;;;5.60;99.90;;;;;;5074242;28;20394;-68
2021/04/20 03:14:39;;;;;;;17.93;14.63;;;5.60;99.90;;;;;;5085768;28;20466;-68
2021/04/20 03:17:04;;;;;;;20.93;14.73;;;5.50;99.90;;;;;;5094492;28;20395;-68
2021/04/20 03:19:30;;;;;;;15.43;13.83;;;5.50;99.90;;;;;;5094301;28;20445;-68
2021/04/20 03:21:56;;;;;;;14.33;12.40;;;5.60;99.90;;;;;;5094445;28;20482;-68
2021/04/20 03:27:34;;;;;;;24.13;14.00;;;5.50;99.90;;;;;;5110855;27;20572;-68
2021/04/20 03:29:59;;;;;;;15.83;14.00;;;5.50;99.90;;;;;;5110929;28;20402;-68
2021/04/20 03:32:26;;;;;;;16.37;14.73;;;5.50;99.90;;;;;;5092916;28;20411;-68
2021/04/20 03:35:00;;;;;;;19.40;14.17;;;5.40;99.90;;;;;;5090567;28;20168;-68
2021/04/20 03:37:37;;;;;;;14.70;13.20;;;5.40;99.90;;;;;;5090313;28;20426;-68
2021/04/20 03:40:07;;;;;;;17.57;14.63;;;5.40;99.90;;;;;;5090271;28;20744;-68
2021/04/20 03:42:40;;;;;;;15.90;13.87;;;5.40;99.90;;;;;;5090449;28;20387;-68
2021/04/20 03:45:13;;;;;;;14.50;13.00;;;5.30;99.90;;;;;;5090378;28;20385;-68
2021/04/20 03:47:42;;;;;;;15.70;14.03;;;5.40;99.90;;;;;;5090673;28;20932;-68
2021/04/20 03:50:17;;;;;;;17.53;15.77;;;5.30;99.90;;;;;;5090032;28;20462;-68
2021/04/20 03:52:46;;;;;;;16.57;14.70;;;5.30;99.90;;;;;;5090193;28;20824;-68
2021/04/20 03:55:14;;;;;;;16.17;14.27;;;5.30;99.90;;;;;;5089953;28;20857;-68
2021/04/20 03:57:43;;;;;;;15.00;13.20;;;5.30;99.90;;;;;;5089932;28;20395;-68
2021/04/20 04:00:09;;;;;;;14.70;13.20;;;5.30;99.90;;;;;;5089811;28;20436;-68
2021/04/20 04:02:38;;;;;;;15.60;14.00;;;5.30;99.90;;;;;;5089746;28;20410;-68
2021/04/20 04:05:07;;;;;;;17.23;14.77;;;5.20;99.90;;;;;;5096525;28;20761;-68
2021/04/20 04:07:35;;;;;;;17.43;15.63;;;5.20;99.90;;;;;;5110397;28;20550;-68
2021/04/20 04:10:04;;;;;;;17.60;15.80;;;5.20;99.90;;;;;;5110216;28;20726;-68
2021/04/20 04:12:37;;;;;;;18.33;16.33;;;5.20;99.90;;;;;;5111308;28;20397;-68
2021/04/20 04:15:05;;;;;;;17.37;14.47;;;5.20;99.90;;;;;;5110090;28;20948;-68
2021/04/20 04:17:32;;;;;;;16.97;15.27;;;5.20;99.90;;;;;;5110051;28;20401;-68
2021/04/20 04:20:01;;;;;;;17.87;14.03;;;5.20;99.90;;;;;;5109837;28;20403;-68
2021/04/20 04:22:31;;;;;;;15.43;13.87;;;5.20;99.90;;;;;;5109010;28;20404;-68
2021/04/20 04:24:59;;;;;;;18.03;15.10;;;5.20;99.90;;;;;;5109822;28;20904;-68
2021/04/20 04:27:28;;;;;;;19.13;14.83;;;5.20;99.90;;;;;;5110521;28;20534;-68
2021/04/20 04:29:59;;;;;;;17.53;14.50;;;5.20;99.90;;;;;;5110042;28;20401;-68
2021/04/20 04:32:26;;;;;;;18.27;14.37;;;5.20;99.90;;;;;;5109813;28;20505;-68
2021/04/20 04:34:53;;;;;;;17.03;15.23;;;5.20;99.90;;;;;;5109932;28;20396;-68
2021/04/20 04:37:19;;;;;;;16.57;14.67;;;5.20;99.90;;;;;;5105191;28;20393;-68
2021/04/20 04:39:45;;;;;;;17.83;15.93;;;5.10;99.90;;;;;;5095446;28;20910;-68
2021/04/20 04:42:12;;;;;;;16.50;14.80;;;5.10;99.90;;;;;;5096915;28;20396;-68
2021/04/20 04:44:38;;;;;;;18.07;14.70;;;5.10;99.90;;;;;;5095965;28;20458;-68
2021/04/20 04:47:05;;;;;;;16.37;14.60;;;5.10;99.90;;;;;;5095928;28;20568;-68
2021/04/20 04:49:32;;;;;;;17.10;13.90;;;5.10;99.90;;;;;;5095723;28;20393;-68
2021/04/20 04:51:58;;;;;;;16.90;14.70;;;5.10;99.90;;;;;;5095699;28;20389;-68
2021/04/20 04:54:25;;;;;;;19.43;15.23;;;5.10;99.90;;;;;;5095930;28;20417;-68
2021/04/20 04:56:53;;;;;;;19.80;15.60;;;5.10;99.90;;;;;;5095201;28;20414;-68
2021/04/20 04:59:20;;;;;;;18.23;16.33;;;5.10;99.90;;;;;;5095686;28;20472;-68
2021/04/20 05:01:46;;;;;;;18.03;15.63;;;5.20;99.90;;;;;;5091079;28;20406;-68
2021/04/20 05:04:13;;;;;;;19.90;15.37;;;5.10;99.90;;;;;;5075384;28;20421;-68
2021/04/20 05:06:44;;;;;;;20.60;15.77;;;5.10;99.90;;;;;;5075305;28;20452;-68
2021/04/20 05:09:10;;;;;;;21.83;14.70;;;5.20;99.90;;;;;;5075650;28;20477;-68
2021/04/20 05:11:40;;;;;;;18.83;15.30;;;5.20;99.90;;;;;;5075592;28;20462;-68
2021/04/20 05:14:07;;;;;;;17.13;15.33;;;5.10;99.90;;;;;;5075656;28;20475;-68
2021/04/20 05:16:33;;;;;;;17.07;14.70;;;5.20;99.90;;;;;;5075171;28;20404;-68
2021/04/20 05:19:02;;;;;;;18.40;16.30;;;5.20;99.90;;;;;;5075052;28;20396;-68
2021/04/20 05:21:29;;;;;;;16.73;14.90;;;5.30;99.90;;;;;;5074988;28;20454;-68
2021/04/20 05:23:54;;;;;;;19.80;16.20;;;5.30;99.90;;;;;;5075418;28;20410;-68
2021/04/20 05:26:20;;;;;;;17.10;15.30;;;5.40;99.90;;;;;;5075109;28;20457;-68
2021/04/20 05:28:45;;;;;;;19.07;15.20;;;5.40;99.90;;;;;;5074824;28;20544;-68
2021/04/20 05:31:11;;;;;;;19.33;15.77;;;5.50;99.90;;;;;;5075406;28;20299;-68
2021/04/20 05:33:37;;;;;;;19.47;15.10;;;5.60;99.90;;;;;;5074981;28;20214;-68
2021/04/20 05:36:07;;;;;;;22.60;16.00;;;5.60;99.90;;;;;;5074855;28;20159;-68
2021/04/20 05:38:32;;;;;;;16.40;14.50;;;5.60;99.90;;;;;;5075516;28;20422;-68
2021/04/20 05:40:58;;;;;;;24.50;15.33;;;5.70;99.90;;;;;;5074981;28;20444;-68
2021/04/20 05:43:24;;;;;;;18.93;14.93;;;5.70;99.90;;;;;;5074829;28;20248;-68
2021/04/20 05:45:49;;;;;;;20.70;16.47;;;5.70;99.90;;;;;;5074584;28;20181;-68
2021/04/20 05:48:15;;;;;;;17.33;15.50;;;5.70;99.90;;;;;;5074797;28;20171;-68
2021/04/20 05:50:42;;;;;;;20.10;16.50;;;5.80;99.90;;;;;;5073731;28;20168;-68
2021/04/20 05:53:10;;;;;;;18.23;16.20;;;5.80;99.90;;;;;;5074892;28;20403;-68
2021/04/20 05:55:37;;;;;;;20.10;16.93;;;5.80;99.90;;;;;;5074484;28;20795;-68
2021/04/20 05:58:04;;;;;;;20.47;16.03;;;5.90;99.90;;;;;;5074166;28;20394;-68
2021/04/20 06:00:29;;;;;;;19.03;16.97;;;5.90;99.90;;;;;;5074361;28;20428;-68
2021/04/20 06:02:56;;;;;;;21.20;15.83;;;6.00;99.90;;;;;;5074067;28;20439;-68
2021/04/20 06:05:25;;;;;;;22.23;17.03;;;6.00;99.90;;;;;;5074866;28;20267;-69
2021/04/20 06:07:54;;;;;;;17.47;15.60;;;6.10;99.90;;;;;;5074607;28;20760;-68
2021/04/20 06:10:20;;;;;;;25.90;17.10;;;6.20;99.90;;;;;;5074462;28;20439;-68
2021/04/20 06:12:47;;;;;;;21.03;17.83;;;6.30;99.90;;;;;;5073990;28;20449;-68
2021/04/20 06:15:15;;;;;;;24.30;18.00;;;6.40;99.90;;;;;;5073528;28;20417;-68
2021/04/20 06:17:41;;;;;;;17.30;15.47;;;6.40;99.90;;;;;;5073688;28;20423;-68
2021/04/20 06:20:11;;;;;;;20.17;18.10;;;6.50;99.90;;;;;;5074116;28;20505;-68
2021/04/20 06:22:39;;;;;;;22.37;16.97;;;6.60;99.90;;;;;;5074617;28;20407;-68
2021/04/20 06:25:10;;;;;;;19.67;17.67;;;6.70;99.90;;;;;;5073770;28;20780;-69
2021/04/20 06:27:35;;;;;;;21.17;17.50;;;6.80;99.90;;;;;;5073539;28;20450;-68
2021/04/20 06:30:01;;;;;;;18.13;16.20;;;6.90;99.90;;;;;;5073441;28;20388;-68
2021/04/20 06:32:26;;;;;;;19.47;17.37;;;7.00;99.90;;;;;;5073395;28;20166;-68
2021/04/20 06:34:52;;;;;;;18.53;15.77;;;7.10;99.90;;;;;;5073436;28;20169;-69
2021/04/20 06:37:18;;;;;;;19.03;17.03;;;7.20;99.90;;;;;;5074256;28;20638;-69
2021/04/20 06:39:44;;;;;;;22.97;16.63;;;7.30;99.90;;;;;;5073433;28;20510;-68
2021/04/20 06:42:17;;;;;;;21.43;18.93;;;7.40;99.90;;;;;;5073399;28;20170;-68
2021/04/20 06:45:07;;;;;;;19.60;17.60;;;7.50;99.90;;;;;;5073320;28;20401;-68
2021/04/20 06:47:42;;;;;;;21.77;17.60;;;7.60;99.90;;;;;;5073087;28;20493;-68
2021/04/20 06:50:11;;;;;;;22.77;18.50;;;7.70;99.90;;;;;;5074126;28;20400;-68
2021/04/20 06:52:49;;;;;;;24.27;19.00;;;7.80;99.90;;;;;;5073514;28;20396;-68
2021/04/20 06:55:22;;;;;;;20.40;18.30;;;7.90;99.90;;;;;;5073742;28;20507;-68
2021/04/20 06:58:00;;;;;;;28.00;18.80;;;8.10;99.90;;;;;;5073047;28;20392;-68
2021/04/20 07:00:28;;;;;;;20.73;17.50;;;8.20;99.90;;;;;;5072875;28;20444;-69
2021/04/20 07:08:27;;;;;;;21.03;18.93;;;8.30;99.90;;;;;;5110811;27;21036;-67
2021/04/20 07:10:54;;;;;;;21.83;18.10;;;8.70;99.90;;;;;;5110969;28;20387;-67
2021/04/20 07:13:26;;;;;;;23.87;19.63;;;8.80;99.90;;;;;;5092879;28;20408;-67
2021/04/20 07:16:12;;;;;;;24.83;20.33;;;8.90;99.90;;;;;;5090186;28;20962;-67
2021/04/20 07:19:01;;;;;;;22.03;19.73;;;9.10;99.90;;;;;;5090142;28;20412;-68
2021/04/20 07:22:01;;;;;;;20.97;18.70;;;9.20;99.90;;;;;;5089909;28;20952;-67
2021/04/20 07:24:48;;;;;;;22.37;20.07;;;9.40;99.90;;;;;;5089022;28;20381;-67
2021/04/20 07:27:46;;;;;;;22.80;19.40;;;9.50;99.90;;;;;;5101716;28;20484;-68
2021/04/20 07:38:31;;;;;;;22.90;20.27;;;10.10;99.90;;;;;;5110695;27;20502;-68
2021/04/20 07:44:03;;;;;;;22.43;18.97;;;10.70;99.90;;;;;;5104124;27;20533;-66
2021/04/20 07:46:49;;;;;;;22.83;18.77;;;11.00;99.90;;;;;;5079462;28;20507;-66
2021/04/20 07:49:21;;;;;;;22.10;18.47;;;11.50;99.90;;;;;;5073748;28;20424;-67
2021/04/20 07:52:11;;;;;;;20.80;18.33;;;11.90;99.90;;;;;;5089491;28;20497;-68
2021/04/20 07:57:27;;;;;;;24.00;16.27;;;12.40;99.90;;;;;;5089924;28;20503;-68
2021/04/20 08:03:07;;;;;;;20.60;16.20;;;13.60;99.90;;;;;;5108763;27;20508;-68
2021/04/20 08:06:09;;;;;;;19.77;16.17;;;14.30;99.90;;;;;;5100446;28;20392;-68
2021/04/20 08:08:57;;;;;;;17.27;14.60;;;14.40;99.90;;;;;;5107050;28;20472;-68
2021/04/20 08:14:19;;;;;;;19.97;14.77;;;14.60;99.90;;;;;;5107397;27;20862;-68
2021/04/20 08:16:50;;;;;;;19.93;15.80;;;14.70;99.90;;;;;;5105108;28;20449;-68
2021/04/20 08:19:24;;;;;;;14.80;13.17;;;14.80;99.80;;;;;;5109127;28;20396;-68
2021/04/20 08:21:51;;;;;;;14.47;12.97;;;15.00;99.00;;;;;;5094460;28;20387;-68
2021/04/20 08:24:26;;;;;;;14.80;13.00;;;15.20;97.50;;;;;;5105686;28;20617;-68
2021/04/20 08:26:58;;;;;;;17.80;13.53;;;15.80;92.80;;;;;;5110264;28;20396;-68
2021/04/20 08:29:28;;;;;;;13.80;11.83;;;16.70;87.10;;;;;;5107776;28;20460;-68
2021/04/20 08:32:01;;;;;;;12.77;10.97;;;17.30;77.80;;;;;;5108748;28;20918;-68
2021/04/20 08:34:36;;;;;;;12.97;11.57;;;17.40;74.60;;;;;;5107557;28;20411;-68
2021/04/20 08:51:43;;;;;;;16.30;13.90;;;16.50;75.20;;;;;;5088440;27;20573;-67
2021/04/20 08:57:00;;;;;;;16.17;13.67;;;16.50;69.10;;;;;;5109098;27;20525;-68
2021/04/20 09:00:08;;;;;;;16.10;14.40;;;16.70;70.90;;;;;;5085664;28;20969;-68
2021/04/20 09:03:02;;;;;;;17.60;14.23;;;16.80;70.40;;;;;;5080796;28;20514;-68
2021/04/20 09:05:41;;;;;;;15.50;13.77;;;17.00;68.50;;;;;;5077155;28;20406;-68
2021/04/20 09:08:22;;;;;;;15.27;13.63;;;17.20;69.10;;;;;;5105101;28;20419;-68
2021/04/20 09:10:55;;;;;;;14.97;13.30;;;17.40;69.00;;;;;;5074165;28;20475;-68
2021/04/20 09:13:23;;;;;;;15.03;13.63;;;17.50;64.90;;;;;;5081221;28;20533;-68
2021/04/20 09:15:52;;;;;;;14.23;12.93;;;17.40;64.10;;;;;;5071136;28;20494;-68
2021/04/20 09:18:21;;;;;;;15.53;14.07;;;17.20;64.20;;;;;;5081581;28;20433;-68
2021/04/20 09:28:58;;;;;;;16.77;14.97;;;16.90;66.70;;;;;;5098560;27;21068;-67
2021/04/20 09:31:30;;;;;;;14.73;13.33;;;16.90;66.80;;;;;;5091097;28;20416;-67
2021/04/20 09:33:57;;;;;;;15.10;13.50;;;16.90;70.20;;;;;;5090510;28;20881;-67
2021/04/20 09:36:23;;;;;;;16.30;14.13;;;16.90;70.40;;;;;;5090494;28;20435;-67
2021/04/20 09:38:50;;;;;;;15.30;13.70;;;16.90;70.80;;;;;;5090560;28;20476;-68
2021/04/20 09:41:22;;;;;;;13.83;12.33;;;16.80;71.80;;;;;;5090388;28;20413;-67
2021/04/20 09:44:14;;;;;;;14.70;13.20;;;16.70;69.50;;;;;;5089929;28;20400;-67
2021/04/20 09:47:12;;;;;;;15.50;13.90;;;16.60;67.90;;;;;;5088182;28;20453;-68
2021/04/20 09:52:19;;;;;;;14.73;13.30;;;16.50;67.70;;;;;;5130897;27;20869;-68
2021/04/20 09:55:06;;;;;;;14.50;13.00;;;16.40;70.70;;;;;;5120563;27;20394;-68
2021/04/20 09:57:39;;;;;;;15.20;13.70;;;16.40;67.20;;;;;;5121188;28;20798;-68
2021/04/20 10:00:09;;;;;;;13.37;12.07;;;16.50;70.60;;;;;;5121315;28;20953;-68
2021/04/20 10:05:51;;;;;;;14.30;12.80;;;16.60;74.70;;;;;;5131561;27;20557;-68
2021/04/20 10:08:43;;;;;;;16.60;14.93;;;17.10;68.20;;;;;;5130375;28;20493;-68
2021/04/20 10:11:33;;;;;;;14.50;13.00;;;17.40;65.40;;;;;;5130377;27;20770;-68
2021/04/20 10:27:57;;;;;;;12.30;10.77;;;18.20;63.90;;;;;;5131201;27;20507;-68
2021/04/20 10:30:29;;;;;;;13.20;11.90;;;18.40;63.30;;;;;;5129115;28;20398;-68
2021/04/20 10:32:56;;;;;;;14.37;12.63;;;18.50;62.40;;;;;;5128336;27;20499;-68
2021/04/20 10:35:40;;;;;;;13.60;12.30;;;18.60;61.20;;;;;;5128307;27;20777;-68
2021/04/20 10:38:13;;;;;;;13.70;12.27;;;18.60;66.70;;;;;;5127201;28;20882;-68
2021/04/20 10:40:42;;;;;;;12.57;11.37;;;18.70;62.70;;;;;;5110532;28;20396;-68
2021/04/20 10:43:10;;;;;;;14.03;11.27;;;18.70;61.60;;;;;;5111054;28;20381;-68
2021/04/20 10:45:38;;;;;;;13.90;12.50;;;18.70;66.80;;;;;;5128514;27;20448;-68
2021/04/20 10:48:05;;;;;;;12.13;10.93;;;18.60;59.00;;;;;;5115456;27;20488;-68
2021/04/20 10:50:34;;;;;;;12.60;11.03;;;18.40;59.40;;;;;;5117089;27;20780;-68
2021/04/20 10:53:08;;;;;;;13.40;12.13;;;18.20;59.90;;;;;;5111053;28;20438;-68
2021/04/20 10:55:36;;;;;;;14.90;12.23;;;18.10;58.50;;;;;;5110307;28;20448;-68
2021/04/20 10:58:04;;;;;;;12.27;11.07;;;18.10;59.50;;;;;;5110711;28;20405;-68
2021/04/20 11:00:33;;;;;;;11.90;10.77;;;18.10;59.80;;;;;;5110119;28;20432;-68
2021/04/20 11:02:59;;;;;;;12.73;10.87;;;18.20;59.50;;;;;;5110387;28;20486;-68
2021/04/20 11:05:27;;;;;;;13.07;11.77;;;18.20;60.80;;;;;;5110415;27;20769;-68
2021/04/20 11:07:55;;;;;;;12.53;11.20;;;18.20;60.00;;;;;;5112926;28;20934;-68
2021/04/20 11:10:26;;;;;;;12.07;10.87;;;18.20;62.40;;;;;;5119822;28;20414;-68
2021/04/20 11:12:52;;;;;;;13.90;12.50;;;18.20;60.80;;;;;;5130995;27;20402;-68
2021/04/20 11:20:42;;;;;;;15.27;13.50;;;18.20;60.10;;;;;;5131355;27;20497;-68
2021/04/20 11:28:45;;;;;;;14.30;12.80;;;18.10;62.00;;;;;;5088179;27;21076;-68
2021/04/20 11:33:56;;;;;;;14.00;12.60;;;18.20;67.40;;;;;;5110712;27;20555;-68
2021/04/20 11:36:28;;;;;;;15.30;13.80;;;18.20;64.20;;;;;;5110876;28;20385;-68
2021/04/20 11:38:57;;;;;;;15.60;14.00;;;18.10;62.40;;;;;;5110417;28;20426;-68
2021/04/20 11:41:29;;;;;;;17.70;15.87;;;18.00;65.30;;;;;;5110602;28;20401;-68
2021/04/20 11:43:56;;;;;;;15.37;13.60;;;17.90;62.90;;;;;;5109469;28;20396;-68
2021/04/20 11:46:23;;;;;;;15.47;12.97;;;17.90;62.60;;;;;;5110562;28;20392;-68
2021/04/20 11:48:54;;;;;;;14.50;12.97;;;17.80;63.20;;;;;;5110586;28;20392;-68
2021/04/20 11:51:20;;;;;;;15.70;14.03;;;17.70;64.20;;;;;;5110526;28;20944;-68
2021/04/20 11:53:48;;;;;;;16.40;14.03;;;17.70;63.70;;;;;;5110750;28;20534;-68
2021/04/20 11:56:15;;;;;;;15.00;13.43;;;17.70;64.60;;;;;;5110898;28;20876;-68
2021/04/20 11:58:42;;;;;;;14.13;12.73;;;17.70;69.10;;;;;;5107676;28;20431;-68
2021/04/20 12:01:18;;;;;;;15.67;14.07;;;17.70;69.50;;;;;;5100199;28;20492;-68
2021/04/20 12:04:05;;;;;;;18.57;15.00;;;17.80;65.70;;;;;;5098792;28;20397;-68
2021/04/20 12:06:43;;;;;;;14.70;13.23;;;17.90;64.90;;;;;;5098880;28;20450;-68
2021/04/20 12:09:17;;;;;;;17.90;13.20;;;18.00;65.90;;;;;;5100133;28;20401;-68
2021/04/20 12:11:45;;;;;;;14.73;13.23;;;18.20;65.70;;;;;;5098362;28;20957;-68
2021/04/20 12:14:12;;;;;;;14.00;12.50;;;18.30;66.00;;;;;;5092518;28;20429;-68
2021/04/20 12:16:38;;;;;;;14.60;13.20;;;18.30;65.50;;;;;;5095125;28;20466;-68
2021/04/20 12:19:06;;;;;;;14.40;12.27;;;18.40;68.10;;;;;;5101235;28;20904;-68
2021/04/20 12:21:38;;;;;;;14.33;12.90;;;18.50;64.50;;;;;;5103984;28;20403;-68
2021/04/20 12:24:06;;;;;;;14.80;13.40;;;18.60;64.40;;;;;;5098898;28;20930;-68
2021/04/20 12:26:32;;;;;;;14.80;13.30;;;18.70;63.50;;;;;;5101695;28;20395;-68
2021/04/20 12:29:09;;;;;;;14.27;12.87;;;18.90;66.80;;;;;;5109926;28;20388;-68
2021/04/20 12:31:35;;;;;;;15.07;13.47;;;18.90;63.80;;;;;;5103801;28;20398;-68
2021/04/20 12:34:01;;;;;;;16.90;11.47;;;19.00;61.80;;;;;;5109931;28;20754;-68
2021/04/20 12:36:31;;;;;;;12.87;11.57;;;19.00;63.90;;;;;;5096607;28;20419;-68
2021/04/20 12:38:59;;;;;;;12.20;11.00;;;19.00;65.70;;;;;;5099377;28;20167;-68
2021/04/20 12:41:28;;;;;;;12.57;11.37;;;19.00;64.00;;;;;;5098255;28;20404;-68
2021/04/20 12:43:57;;;;;;;13.07;11.70;;;19.00;62.20;;;;;;5093501;28;20404;-68
2021/04/20 12:46:26;;;;;;;12.63;11.37;;;19.10;62.40;;;;;;5085965;28;20398;-68
2021/04/20 12:48:55;;;;;;;13.10;11.87;;;19.10;60.90;;;;;;5078303;28;20458;-68
2021/04/20 12:51:21;;;;;;;12.57;11.47;;;19.10;60.50;;;;;;5080195;28;20457;-68
2021/04/20 12:53:49;;;;;;;13.20;11.90;;;19.10;59.60;;;;;;5085420;28;20452;-68
2021/04/20 12:56:21;;;;;;;11.97;10.70;;;19.00;57.80;;;;;;5081032;28;20428;-67
2021/04/20 12:58:49;;;;;;;13.57;12.27;;;18.90;58.10;;;;;;5075432;28;20955;-68
2021/04/20 13:01:20;;;;;;;11.50;10.30;;;18.80;59.00;;;;;;5075355;28;20396;-68
2021/04/20 13:03:47;;;;;;;13.20;11.37;;;18.90;63.30;;;;;;5075439;28;20783;-68
2021/04/20 13:06:17;;;;;;;11.70;10.70;;;19.00;62.20;;;;;;5075885;28;20498;-68
2021/04/20 13:08:46;;;;;;;12.30;11.03;;;19.00;63.10;;;;;;5076281;28;20428;-68
2021/04/20 13:11:13;;;;;;;13.53;12.17;;;19.10;61.50;;;;;;5077873;28;20763;-68
2021/04/20 13:13:41;;;;;;;14.40;13.10;;;19.20;61.30;;;;;;5089609;28;20455;-68
2021/04/20 13:16:09;;;;;;;13.00;11.47;;;19.30;59.50;;;;;;5095444;28;20426;-68
2021/04/20 13:18:37;;;;;;;13.80;12.03;;;19.30;59.60;;;;;;5089343;28;20405;-68
2021/04/20 13:21:04;;;;;;;13.20;11.90;;;19.30;61.60;;;;;;5086880;28;20410;-68
2021/04/20 13:23:42;;;;;;;14.83;13.10;;;19.30;60.20;;;;;;5084078;28;20389;-68
2021/04/20 13:26:10;;;;;;;13.13;11.40;;;19.30;58.50;;;;;;5084538;28;20515;-68
2021/04/20 13:28:43;;;;;;;13.90;12.57;;;19.20;58.90;;;;;;5084310;28;20960;-68
2021/04/20 13:31:22;;;;;;;13.43;12.13;;;19.10;59.60;;;;;;5095171;28;20401;-67
2021/04/20 13:33:52;;;;;;;12.20;11.00;;;19.00;61.70;;;;;;5091813;28;20449;-68
2021/04/20 13:36:20;;;;;;;14.80;12.87;;;18.90;58.10;;;;;;5095800;28;20389;-68
2021/04/20 13:38:51;;;;;;;13.93;12.53;;;18.80;59.90;;;;;;5090598;28;20455;-68
2021/04/20 13:41:18;;;;;;;13.13;11.90;;;18.70;60.30;;;;;;5089165;28;20503;-68
2021/04/20 13:43:49;;;;;;;12.63;11.43;;;18.60;60.10;;;;;;5081911;28;20422;-68
2021/04/20 13:46:15;;;;;;;13.63;12.33;;;18.60;63.50;;;;;;5074596;28;20401;-68
2021/04/20 13:48:41;;;;;;;12.20;11.00;;;18.60;64.20;;;;;;5074914;28;20955;-68
2021/04/20 13:51:07;;;;;;;13.43;12.07;;;18.50;64.70;;;;;;5075373;28;20400;-68
2021/04/20 13:53:39;;;;;;;15.70;14.10;;;18.60;63.10;;;;;;5074445;28;20242;-68
2021/04/20 13:56:08;;;;;;;14.57;13.07;;;18.50;61.50;;;;;;5073677;28;20402;-68
2021/04/20 13:58:46;;;;;;;13.87;12.43;;;18.50;63.40;;;;;;5074484;28;20420;-68
2021/04/20 14:01:13;;;;;;;14.57;12.60;;;18.40;61.60;;;;;;5074834;28;20417;-68
2021/04/20 14:03:42;;;;;;;14.10;12.77;;;18.40;62.30;;;;;;5074485;28;20400;-68
2021/04/20 14:06:11;;;;;;;15.37;11.70;;;18.30;63.40;;;;;;5074832;28;20467;-68
2021/04/20 14:08:40;;;;;;;16.23;14.33;;;18.30;64.20;;;;;;5074137;28;20405;-68
2021/04/20 14:11:07;;;;;;;15.87;13.47;;;18.20;62.00;;;;;;5074240;28;20421;-68
2021/04/20 14:13:35;;;;;;;14.63;12.90;;;18.30;62.20;;;;;;5073993;28;20442;-68
2021/04/20 14:16:05;;;;;;;14.30;12.70;;;18.30;62.30;;;;;;5074078;28;20394;-68